createdAt,value
2019-01-14T00:02:07.338Z,5.90
2019-01-14T00:04:38.263Z,5.90
2019-01-14T00:07:09.333Z,5.90
2019-01-14T00:09:38.541Z,6.00
2019-01-14T00:12:08.476Z,6.00
2019-01-14T00:14:39.354Z,6.00
2019-01-14T00:17:07.802Z,6.10
2019-01-14T00:19:39.406Z,6.30
2019-01-14T00:22:13.803Z,6.40
2019-01-14T00:24:45.209Z,6.50
2019-01-14T00:27:13.586Z,6.60
2019-01-14T00:29:41.978Z,6.40
2019-01-14T00:32:10.369Z,6.40
2019-01-14T00:34:38.978Z,6.30
2019-01-14T00:37:11.078Z,6.10
2019-01-14T00:39:39.481Z,6.20
2019-01-14T00:42:18.095Z,6.10
2019-01-14T00:45:00.033Z,6.30
2019-01-14T00:47:28.454Z,6.30
2019-01-14T00:49:56.829Z,6.30
2019-01-14T00:52:28.400Z,6.30
2019-01-14T00:55:02.495Z,6.30
2019-01-14T00:57:42.386Z,6.30
2019-01-14T01:00:18.733Z,6.40
2019-01-14T01:02:47.365Z,6.40
2019-01-14T01:05:17.634Z,6.40
2019-01-14T01:07:48.717Z,6.50
2019-01-14T01:10:18.429Z,6.50
2019-01-14T01:12:50.935Z,6.50
2019-01-14T01:15:20.332Z,6.50
2019-01-14T01:17:48.769Z,6.30
2019-01-14T01:20:19.933Z,6.20
2019-01-14T01:22:49.436Z,6.10
2019-01-14T01:25:17.960Z,6.00
2019-01-14T01:27:46.341Z,6.00
2019-01-14T01:30:17.314Z,6.00
2019-01-14T01:32:45.691Z,6.00
2019-01-14T01:35:17.562Z,6.10
2019-01-14T01:37:45.932Z,6.10
2019-01-14T01:40:19.458Z,6.10
2019-01-14T01:42:56.692Z,6.10
2019-01-14T01:45:26.384Z,6.00
2019-01-14T01:47:59.357Z,6.00
2019-01-14T01:50:32.064Z,5.90
2019-01-14T01:53:10.797Z,5.90
2019-01-14T01:55:42.945Z,6.00
2019-01-14T01:58:14.034Z,6.10
2019-01-14T02:00:45.440Z,6.20
2019-01-14T02:03:16.625Z,6.20
2019-01-14T02:05:52.498Z,6.00
2019-01-14T02:08:22.425Z,5.80
2019-01-14T02:10:52.389Z,5.80
2019-01-14T02:13:22.430Z,5.70
2019-01-14T02:15:50.804Z,5.70
2019-01-14T02:18:20.737Z,5.70
2019-01-14T02:20:52.230Z,5.80
2019-01-14T02:23:22.296Z,5.80
2019-01-14T02:25:50.673Z,5.70
2019-01-14T02:28:20.712Z,5.60
2019-01-14T02:30:51.820Z,5.60
2019-01-14T02:33:20.785Z,5.40
2019-01-14T02:36:07.786Z,5.30
2019-01-14T02:38:40.489Z,5.20
2019-01-14T02:41:16.520Z,5.10
2019-01-14T02:43:45.138Z,5.10
2019-01-14T02:46:13.720Z,5.00
2019-01-14T02:48:42.159Z,5.10
2019-01-14T02:51:15.067Z,5.10
2019-01-14T02:53:43.629Z,5.20
2019-01-14T02:56:12.023Z,5.20
2019-01-14T02:58:40.401Z,5.20
2019-01-14T03:01:08.780Z,5.20
2019-01-14T03:03:38.770Z,5.10
2019-01-14T03:06:07.677Z,4.90
2019-01-14T03:08:38.729Z,4.70
2019-01-14T03:11:07.441Z,4.70
2019-01-14T03:13:35.830Z,4.70
2019-01-14T03:16:04.344Z,4.70
2019-01-14T03:18:33.025Z,4.70
2019-01-14T03:21:01.402Z,4.70
2019-01-14T03:23:30.029Z,4.70
2019-01-14T03:25:58.570Z,4.70
2019-01-14T03:28:26.985Z,4.70
2019-01-14T03:30:55.380Z,4.60
2019-01-14T03:33:23.768Z,4.60
2019-01-14T03:35:52.166Z,4.50
2019-01-14T03:38:23.497Z,4.40
2019-01-14T03:40:52.115Z,4.40
2019-01-14T03:43:20.506Z,4.20
2019-01-14T03:45:48.944Z,4.10
2019-01-14T03:48:17.326Z,4.00
2019-01-14T03:50:45.701Z,4.00
2019-01-14T03:53:14.095Z,3.90
2019-01-14T03:55:42.505Z,3.90
2019-01-14T03:58:10.869Z,3.90
2019-01-14T04:00:41.994Z,4.00
2019-01-14T04:03:12.164Z,3.90
2019-01-14T04:05:43.874Z,4.00
2019-01-14T04:08:12.666Z,4.00
2019-01-14T04:10:41.044Z,4.10
2019-01-14T04:13:10.421Z,4.10
2019-01-14T04:15:38.816Z,4.10
2019-01-14T04:18:07.201Z,4.10
2019-01-14T04:20:38.681Z,4.10
2019-01-14T04:23:07.078Z,4.10
2019-01-14T04:25:35.468Z,4.10
2019-01-14T04:28:05.857Z,4.20
2019-01-14T04:30:34.500Z,4.30
2019-01-14T04:33:02.874Z,4.40
2019-01-14T04:35:31.498Z,4.50
2019-01-14T04:38:00.001Z,4.60
2019-01-14T04:40:28.349Z,4.70
2019-01-14T04:42:56.749Z,4.80
2019-01-14T04:45:26.117Z,4.80
2019-01-14T04:47:54.493Z,4.80
2019-01-14T04:50:22.957Z,4.90
2019-01-14T04:52:51.403Z,4.90
2019-01-14T04:55:20.161Z,4.90
2019-01-14T04:57:49.686Z,4.90
2019-01-14T05:00:25.445Z,4.90
2019-01-14T05:02:58.062Z,4.90
2019-01-14T05:05:26.433Z,4.90
2019-01-14T05:07:54.822Z,4.90
2019-01-14T05:10:24.502Z,5.00
2019-01-14T05:12:52.925Z,5.00
2019-01-14T05:15:21.314Z,5.00
2019-01-14T05:17:56.001Z,5.00
2019-01-14T05:20:27.176Z,5.10
2019-01-14T05:23:00.435Z,5.10
2019-01-14T05:25:34.841Z,5.10
2019-01-14T05:28:12.233Z,5.10
2019-01-14T05:30:38.106Z,5.10
2019-01-14T05:33:06.490Z,5.10
2019-01-14T05:35:34.868Z,5.10
2019-01-14T05:38:07.669Z,5.10
2019-01-14T05:40:41.800Z,5.10
2019-01-14T05:43:23.299Z,5.00
2019-01-14T05:45:54.349Z,5.00
2019-01-14T05:48:25.892Z,4.90
2019-01-14T05:50:54.277Z,4.90
2019-01-14T05:53:22.708Z,4.90
2019-01-14T05:55:51.124Z,4.90
2019-01-14T05:58:28.288Z,4.90
2019-01-14T06:00:59.643Z,4.80
2019-01-14T06:03:33.982Z,4.70
2019-01-14T06:06:12.557Z,4.70
2019-01-14T06:08:41.402Z,4.60
2019-01-14T06:11:15.045Z,4.60
2019-01-14T06:13:43.713Z,4.70
2019-01-14T06:16:15.097Z,4.70
2019-01-14T06:18:43.496Z,4.60
2019-01-14T06:21:20.789Z,4.60
2019-01-14T06:23:50.887Z,4.50
2019-01-14T06:26:19.557Z,4.50
2019-01-14T06:28:47.963Z,4.50
2019-01-14T06:31:18.242Z,4.50
2019-01-14T06:33:49.546Z,4.60
2019-01-14T06:36:23.882Z,4.60
2019-01-14T06:38:56.558Z,4.60
2019-01-14T06:41:28.045Z,4.60
2019-01-14T06:43:56.444Z,4.70
2019-01-14T06:46:24.834Z,4.70
2019-01-14T06:48:53.238Z,4.80
2019-01-14T06:51:24.537Z,4.90
2019-01-14T06:53:55.555Z,4.90
2019-01-14T06:56:27.162Z,4.90
2019-01-14T06:58:58.471Z,4.90
2019-01-14T07:01:31.129Z,4.90
2019-01-14T07:04:05.481Z,4.90
2019-01-14T07:06:33.931Z,4.90
2019-01-14T07:09:02.980Z,4.90
2019-01-14T07:11:33.126Z,4.90
2019-01-14T07:14:01.561Z,5.00
2019-01-14T07:16:30.154Z,5.00
2019-01-14T07:18:58.490Z,5.00
2019-01-14T07:21:28.516Z,4.90
2019-01-14T07:23:56.918Z,4.80
2019-01-14T07:26:28.144Z,4.80
2019-01-14T07:28:59.485Z,4.90
2019-01-14T07:31:27.881Z,4.90
2019-01-14T07:33:56.281Z,5.00
2019-01-14T07:36:24.908Z,5.00
2019-01-14T07:38:55.291Z,4.90
2019-01-14T07:41:23.692Z,4.90
2019-01-14T07:44:01.198Z,4.80
2019-01-14T07:46:29.597Z,4.80
2019-01-14T07:48:57.969Z,4.80
2019-01-14T07:51:26.377Z,4.80
2019-01-14T07:53:57.771Z,4.80
2019-01-14T07:56:29.326Z,4.80
2019-01-14T07:58:58.155Z,4.90
2019-01-14T08:01:26.722Z,4.90
2019-01-14T08:03:55.141Z,4.90
2019-01-14T08:06:23.542Z,4.90
2019-01-14T08:08:51.917Z,5.00
2019-01-14T08:11:21.841Z,5.10
2019-01-14T08:13:53.157Z,5.00
2019-01-14T08:16:22.086Z,5.00
2019-01-14T08:18:53.910Z,5.00
2019-01-14T08:21:25.274Z,5.00
2019-01-14T08:23:56.660Z,5.10
2019-01-14T08:26:25.034Z,5.10
2019-01-14T08:28:53.424Z,5.20
2019-01-14T08:31:33.849Z,5.30
2019-01-14T08:34:05.257Z,5.30
2019-01-14T08:36:34.593Z,5.30
2019-01-14T08:39:05.361Z,5.30
2019-01-14T08:41:38.206Z,5.30
2019-01-14T08:44:09.733Z,5.30
2019-01-14T08:46:38.433Z,5.30
2019-01-14T08:49:06.888Z,5.30
2019-01-14T08:51:35.266Z,5.30
2019-01-14T08:54:06.336Z,5.30
2019-01-14T08:56:35.838Z,5.30
2019-01-14T08:59:04.443Z,5.30
2019-01-14T09:01:35.930Z,5.20
2019-01-14T09:04:04.461Z,5.20
2019-01-14T09:06:34.769Z,5.20
2019-01-14T09:09:09.344Z,5.20
2019-01-14T09:11:40.353Z,5.20
2019-01-14T09:14:08.737Z,5.10
2019-01-14T09:16:46.037Z,5.00
2019-01-14T09:19:17.268Z,5.00
2019-01-14T09:21:52.684Z,5.00
2019-01-14T09:24:21.066Z,4.90
2019-01-14T09:26:49.702Z,4.80
2019-01-14T09:29:18.082Z,4.60
2019-01-14T09:31:46.840Z,4.40
2019-01-14T09:34:15.635Z,4.10
2019-01-14T09:36:57.774Z,3.80
2019-01-14T09:39:28.834Z,3.60
2019-01-14T09:41:57.204Z,3.50
2019-01-14T09:44:26.451Z,3.50
2019-01-14T09:46:54.826Z,3.50
2019-01-14T09:49:23.541Z,3.40
2019-01-14T09:51:59.294Z,3.50
2019-01-14T09:54:32.130Z,3.50
2019-01-14T09:57:00.525Z,3.60
2019-01-14T09:59:29.405Z,3.60
2019-01-14T10:01:59.693Z,3.70
2019-01-14T10:04:28.364Z,3.60
2019-01-14T10:06:56.837Z,3.70
2019-01-14T10:09:25.342Z,3.70
2019-01-14T10:11:54.096Z,3.70
2019-01-14T10:14:22.478Z,3.70
2019-01-14T10:16:52.749Z,3.70
2019-01-14T10:19:21.266Z,3.70
2019-01-14T10:21:49.722Z,3.80
2019-01-14T10:24:18.143Z,3.80
2019-01-14T10:26:46.537Z,3.90
2019-01-14T10:29:15.027Z,3.90
2019-01-14T10:31:43.430Z,3.90
2019-01-14T10:34:12.050Z,3.90
2019-01-14T10:36:43.120Z,4.00
2019-01-14T10:39:15.025Z,4.00
2019-01-14T10:41:43.436Z,4.00
2019-01-14T10:44:17.632Z,4.10
2019-01-14T10:46:46.064Z,4.20
2019-01-14T10:49:17.175Z,4.20
2019-01-14T10:51:45.634Z,4.30
2019-01-14T10:54:14.275Z,4.30
2019-01-14T10:56:48.506Z,4.50
2019-01-14T10:59:18.562Z,4.60
2019-01-14T11:01:46.935Z,4.80
2019-01-14T11:04:18.281Z,5.00
2019-01-14T11:06:49.522Z,5.30
2019-01-14T11:09:17.993Z,5.50
2019-01-14T11:11:49.488Z,5.60
2019-01-14T11:14:23.797Z,5.50
2019-01-14T11:16:57.809Z,5.60
2019-01-14T11:19:31.401Z,5.60
2019-01-14T11:22:01.436Z,5.70
2019-01-14T11:24:37.189Z,5.80
2019-01-14T11:27:05.879Z,5.80
2019-01-14T11:29:35.910Z,5.80
2019-01-14T11:32:13.198Z,5.80
2019-01-14T11:34:44.675Z,5.90
2019-01-14T11:37:13.745Z,5.90
2019-01-14T11:39:42.213Z,5.70
2019-01-14T11:42:20.741Z,5.80
2019-01-14T11:44:47.365Z,5.70
2019-01-14T11:47:18.432Z,5.70
2019-01-14T11:49:48.565Z,5.70
2019-01-14T11:52:18.853Z,5.60
2019-01-14T11:54:52.103Z,5.60
2019-01-14T11:57:20.472Z,5.50
2019-01-14T11:59:48.876Z,5.40
2019-01-14T12:02:17.268Z,5.30
2019-01-14T12:04:48.518Z,5.20
2019-01-14T12:07:20.924Z,5.00
2019-01-14T12:09:52.235Z,4.90
2019-01-14T12:12:21.560Z,4.70
2019-01-14T12:14:50.101Z,4.60
2019-01-14T12:17:22.192Z,4.60
2019-01-14T12:19:57.624Z,4.50
2019-01-14T12:22:30.449Z,4.60
2019-01-14T12:24:58.873Z,5.70
2019-01-14T12:27:33.306Z,7.10
2019-01-14T12:30:01.688Z,7.90
2019-01-14T12:32:30.126Z,8.20
2019-01-14T12:34:58.828Z,8.30
2019-01-14T12:37:27.327Z,8.00
2019-01-14T12:39:55.833Z,7.60
2019-01-14T12:42:24.296Z,7.20
2019-01-14T12:44:52.833Z,7.00
2019-01-14T12:47:21.379Z,6.80
2019-01-14T12:49:49.844Z,6.70
2019-01-14T12:52:19.226Z,6.80
2019-01-14T12:54:47.609Z,6.70
2019-01-14T12:57:15.997Z,6.50
2019-01-14T12:59:44.416Z,6.30
2019-01-14T13:02:12.925Z,6.10
2019-01-14T13:04:42.386Z,5.90
2019-01-14T13:07:10.790Z,6.00
2019-01-14T13:09:39.449Z,6.00
2019-01-14T13:12:07.825Z,6.10
2019-01-14T13:14:36.462Z,6.20
2019-01-14T13:17:04.914Z,6.10
2019-01-14T13:19:33.354Z,6.30
2019-01-14T13:22:01.738Z,6.60
2019-01-14T13:24:30.139Z,6.80
2019-01-14T13:26:58.525Z,6.50
2019-01-14T13:29:29.819Z,6.40
2019-01-14T13:31:58.217Z,6.30
2019-01-14T13:34:26.596Z,6.40
2019-01-14T13:36:54.992Z,6.80
2019-01-14T13:39:23.380Z,7.20
2019-01-14T13:41:56.366Z,7.30
2019-01-14T13:44:24.745Z,7.10
2019-01-14T13:46:53.145Z,6.90
2019-01-14T13:49:24.512Z,7.10
2019-01-14T13:51:52.901Z,7.30
2019-01-14T13:54:22.917Z,7.20
2019-01-14T13:56:51.321Z,6.80
2019-01-14T13:59:22.385Z,6.50
2019-01-14T14:01:50.771Z,6.30
2019-01-14T14:04:19.148Z,6.00
2019-01-14T14:06:47.727Z,5.90
2019-01-14T14:09:16.130Z,5.80
2019-01-14T14:11:44.514Z,5.80
2019-01-14T14:14:16.027Z,5.80
2019-01-14T14:16:47.061Z,5.80
2019-01-14T14:19:15.456Z,5.70
2019-01-14T14:21:45.331Z,5.70
2019-01-14T14:24:13.717Z,5.60
2019-01-14T14:26:42.110Z,5.50
2019-01-14T14:29:10.563Z,5.30
2019-01-14T14:31:38.949Z,5.20
2019-01-14T14:34:19.113Z,5.20
2019-01-14T14:36:47.505Z,5.20
2019-01-14T14:39:15.957Z,5.20
2019-01-14T14:41:45.990Z,5.20
2019-01-14T14:44:17.090Z,5.20
2019-01-14T14:46:49.791Z,5.10
2019-01-14T14:49:19.813Z,5.20
2019-01-14T14:51:51.329Z,5.20
2019-01-14T14:54:19.716Z,5.20
2019-01-14T14:56:55.473Z,5.20
2019-01-14T14:59:23.868Z,5.20
2019-01-14T15:02:00.952Z,5.20
2019-01-14T15:04:33.937Z,5.10
2019-01-14T15:07:11.222Z,5.10
2019-01-14T15:09:39.613Z,5.10
2019-01-14T15:12:07.994Z,5.20
2019-01-14T15:14:36.389Z,5.30
2019-01-14T15:17:04.765Z,5.40
2019-01-14T15:19:36.371Z,5.40
2019-01-14T15:22:07.951Z,5.50
2019-01-14T15:24:36.341Z,5.50
2019-01-14T15:27:16.438Z,5.60
2019-01-14T15:29:47.477Z,5.60
2019-01-14T15:32:17.503Z,5.60
2019-01-14T15:34:49.482Z,5.60
2019-01-14T15:37:23.081Z,5.50
2019-01-14T15:40:03.510Z,5.30
2019-01-14T15:42:29.685Z,5.20
2019-01-14T15:44:59.721Z,5.10
2019-01-14T15:47:29.808Z,4.80
2019-01-14T15:49:58.173Z,4.60
2019-01-14T15:52:26.550Z,4.30
2019-01-14T15:54:57.606Z,4.10
2019-01-14T15:57:30.027Z,3.90
2019-01-14T15:59:58.418Z,3.80
2019-01-14T16:02:29.334Z,3.80
2019-01-14T16:05:00.853Z,3.80
2019-01-14T16:07:29.234Z,3.70
2019-01-14T16:10:00.413Z,3.70
2019-01-14T16:12:28.929Z,3.70
2019-01-14T16:14:57.313Z,3.70
2019-01-14T16:17:25.702Z,3.60
2019-01-14T16:19:54.084Z,3.60
2019-01-14T16:22:22.490Z,3.60
2019-01-14T16:24:50.998Z,3.60
2019-01-14T16:27:21.025Z,3.50
2019-01-14T16:29:52.357Z,3.40
2019-01-14T16:32:22.626Z,3.40
2019-01-14T16:34:51.005Z,3.40
2019-01-14T16:37:20.290Z,3.40
2019-01-14T16:39:49.521Z,3.30
2019-01-14T16:42:17.965Z,3.20
2019-01-14T16:44:46.608Z,3.20
2019-01-14T16:47:15.019Z,3.20
2019-01-14T16:49:43.373Z,3.10
2019-01-14T16:52:11.773Z,3.00
2019-01-14T16:54:40.155Z,2.90
2019-01-14T16:57:09.726Z,2.90
2019-01-14T16:59:40.451Z,2.90
2019-01-14T17:02:09.199Z,2.90
2019-01-14T17:04:37.593Z,2.90
2019-01-14T17:07:08.255Z,2.80
2019-01-14T17:09:36.858Z,2.80
2019-01-14T17:12:05.250Z,2.80
2019-01-14T17:14:35.539Z,2.70
2019-01-14T17:17:05.490Z,2.70
2019-01-14T17:19:34.089Z,2.60
2019-01-14T17:22:02.652Z,2.60
2019-01-14T17:24:31.275Z,2.50
2019-01-14T17:26:59.664Z,2.50
2019-01-14T17:29:28.050Z,2.50
2019-01-14T17:31:56.454Z,2.30
2019-01-14T17:34:24.881Z,2.30
2019-01-14T17:36:53.257Z,2.30
2019-01-14T17:39:21.654Z,2.30
2019-01-14T17:41:50.401Z,2.20
2019-01-14T17:44:18.784Z,2.20
2019-01-14T17:46:47.157Z,2.10
2019-01-14T17:49:18.273Z,2.00
2019-01-14T17:51:46.654Z,2.00
2019-01-14T17:54:15.032Z,2.00
2019-01-14T17:56:43.423Z,2.00
2019-01-14T17:59:11.792Z,1.90
2019-01-14T18:01:42.313Z,1.80
2019-01-14T18:04:13.378Z,1.80
2019-01-14T18:06:44.669Z,1.80
2019-01-14T18:09:15.976Z,1.80
2019-01-14T18:11:46.081Z,1.80
2019-01-14T18:14:20.158Z,1.80
2019-01-14T18:16:50.191Z,1.80
2019-01-14T18:19:21.436Z,1.80
2019-01-14T18:21:52.037Z,1.70
2019-01-14T18:24:20.893Z,1.70
2019-01-14T18:26:49.284Z,1.60
2019-01-14T18:29:18.633Z,1.60
2019-01-14T18:31:49.981Z,1.50
2019-01-14T18:34:18.377Z,1.40
2019-01-14T18:36:46.769Z,1.20
2019-01-14T18:39:17.827Z,1.10
2019-01-14T18:41:54.962Z,0.80
2019-01-14T18:44:23.860Z,0.60
2019-01-14T18:46:55.229Z,0.50
2019-01-14T18:49:24.884Z,0.40
2019-01-14T18:51:56.100Z,0.30
2019-01-14T18:54:24.479Z,0.20
2019-01-14T18:56:54.769Z,0.10
2019-01-14T18:59:23.123Z,0.00
2019-01-14T19:01:51.508Z,-0.20
2019-01-14T19:04:26.010Z,-0.30
2019-01-14T19:06:56.037Z,-0.30
2019-01-14T19:09:24.413Z,-0.30
2019-01-14T19:11:52.823Z,-0.40
2019-01-14T19:14:26.740Z,-0.40
2019-01-14T19:16:55.125Z,-0.50
2019-01-14T19:19:26.178Z,-0.50
2019-01-14T19:21:57.253Z,-0.40
2019-01-14T19:24:28.788Z,-0.40
2019-01-14T19:26:57.176Z,-0.50
2019-01-14T19:29:28.529Z,-0.50
2019-01-14T19:32:05.638Z,-0.50
2019-01-14T19:34:37.969Z,-0.50
2019-01-14T19:37:06.689Z,-0.50
2019-01-14T19:39:40.713Z,-0.40
2019-01-14T19:42:13.686Z,-0.20
2019-01-14T19:44:42.301Z,-0.10
2019-01-14T19:47:13.569Z,0.00
2019-01-14T19:49:46.421Z,0.20
2019-01-14T19:52:28.426Z,0.40
2019-01-14T19:54:59.822Z,0.60
2019-01-14T19:57:31.121Z,0.70
2019-01-14T20:00:02.461Z,0.80
2019-01-14T20:02:35.811Z,1.00
2019-01-14T20:05:06.516Z,1.10
2019-01-14T20:07:36.437Z,1.40
2019-01-14T20:10:08.485Z,1.60
2019-01-14T20:12:37.921Z,1.70
2019-01-14T20:15:09.402Z,1.90
2019-01-14T20:17:38.810Z,2.10
2019-01-14T20:20:10.834Z,2.20
2019-01-14T20:22:40.257Z,2.20
2019-01-14T20:25:14.924Z,2.20
2019-01-14T20:27:46.470Z,2.30
2019-01-14T20:30:23.096Z,2.30
2019-01-14T20:32:55.918Z,2.40
2019-01-14T20:35:21.845Z,2.40
2019-01-14T20:37:53.600Z,2.50
2019-01-14T20:40:22.042Z,2.60
2019-01-14T20:42:55.945Z,2.60
2019-01-14T20:45:25.971Z,2.70
2019-01-14T20:47:54.362Z,2.60
2019-01-14T20:50:22.883Z,2.40
2019-01-14T20:52:51.272Z,2.30
2019-01-14T20:55:19.658Z,2.20
2019-01-14T20:57:55.370Z,2.10
2019-01-14T21:00:28.201Z,2.10
2019-01-14T21:02:58.215Z,2.20
2019-01-14T21:05:37.005Z,2.20
2019-01-14T21:08:05.632Z,2.30
2019-01-14T21:10:36.976Z,2.30
2019-01-14T21:13:09.733Z,2.10
2019-01-14T21:15:45.070Z,2.10
2019-01-14T21:18:13.926Z,2.10
2019-01-14T21:20:42.780Z,2.10
2019-01-14T21:23:18.381Z,2.10
2019-01-14T21:25:49.593Z,2.20
2019-01-14T21:28:26.906Z,2.30
2019-01-14T21:30:59.720Z,2.40
2019-01-14T21:33:28.104Z,2.50
2019-01-14T21:35:59.492Z,2.60
2019-01-14T21:38:27.881Z,2.60
2019-01-14T21:40:56.257Z,2.60
2019-01-14T21:43:24.638Z,2.50
2019-01-14T21:45:53.278Z,2.40
2019-01-14T21:48:21.662Z,2.20
2019-01-14T21:50:50.063Z,2.20
2019-01-14T21:53:21.389Z,2.10
2019-01-14T21:55:52.366Z,2.10
2019-01-14T21:58:26.653Z,2.10
2019-01-14T22:00:58.188Z,2.00
2019-01-14T22:03:29.320Z,2.00
2019-01-14T22:06:00.667Z,2.00
2019-01-14T22:08:32.159Z,2.10
2019-01-14T22:11:03.485Z,2.20
2019-01-14T22:13:51.321Z,2.30
2019-01-14T22:16:19.721Z,2.30
2019-01-14T22:18:48.109Z,2.30
2019-01-14T22:21:16.528Z,2.40
2019-01-14T22:23:53.996Z,2.40
2019-01-14T22:26:25.161Z,2.50
2019-01-14T22:28:56.625Z,2.50
2019-01-14T22:31:25.000Z,2.60
2019-01-14T22:33:55.202Z,2.60
2019-01-14T22:36:23.581Z,2.60
2019-01-14T22:38:54.740Z,2.70
2019-01-14T22:41:26.149Z,2.70
2019-01-14T22:43:57.505Z,2.70
2019-01-14T22:46:25.888Z,2.70
2019-01-14T22:48:54.509Z,2.70
2019-01-14T22:51:22.921Z,2.60
2019-01-14T22:53:53.997Z,2.40
2019-01-14T22:56:25.281Z,2.20
2019-01-14T22:58:56.751Z,2.20
2019-01-14T23:01:40.836Z,2.10
2019-01-14T23:04:17.091Z,2.00
2019-01-14T23:06:41.289Z,1.90
2019-01-14T23:09:35.042Z,1.80
2019-01-14T23:11:44.257Z,1.70
2019-01-14T23:14:15.446Z,1.60
2019-01-14T23:16:43.829Z,1.60
2019-01-14T23:19:13.208Z,1.60
2019-01-14T23:21:44.045Z,1.60
2019-01-14T23:24:12.433Z,1.70
2019-01-14T23:26:43.805Z,1.70
2019-01-14T23:29:23.151Z,1.60
2019-01-14T23:31:55.785Z,1.60
2019-01-14T23:34:26.051Z,1.50
2019-01-14T23:37:06.163Z,1.60
2019-01-14T23:39:34.549Z,1.70
2019-01-14T23:42:15.067Z,1.70
2019-01-14T23:44:46.433Z,1.80
2019-01-14T23:47:17.619Z,1.80
2019-01-14T23:49:45.985Z,1.80
2019-01-14T23:52:20.209Z,1.80
2019-01-14T23:54:51.775Z,1.70
2019-01-14T23:57:22.856Z,1.70
2019-01-14T23:59:57.073Z,1.60
